createdAt,value
2018-02-20T00:01:09.950Z,87.50
2018-02-20T00:03:37.514Z,86.40
2018-02-20T00:06:04.393Z,86.40
2018-02-20T00:08:31.238Z,85.80
2018-02-20T00:10:58.102Z,86.60
2018-02-20T00:13:24.912Z,86.70
2018-02-20T00:15:51.767Z,86.50
2018-02-20T00:18:18.615Z,86.20
2018-02-20T00:20:45.430Z,86.30
2018-02-20T00:23:12.226Z,86.20
2018-02-20T00:25:39.189Z,85.80
2018-02-20T00:28:07.101Z,86.90
2018-02-20T00:30:34.161Z,86.70
2018-02-20T00:33:00.977Z,86.60
2018-02-20T00:35:27.846Z,86.30
2018-02-20T00:37:54.679Z,87.00
2018-02-20T00:40:21.502Z,87.00
2018-02-20T00:42:48.330Z,87.20
2018-02-20T00:45:15.233Z,87.70
2018-02-20T00:47:42.026Z,87.80
2018-02-20T00:50:08.843Z,87.20
2018-02-20T00:52:36.434Z,87.60
2018-02-20T00:55:03.313Z,87.40
2018-02-20T00:57:30.126Z,88.30
2018-02-20T00:59:56.987Z,89.00
2018-02-20T01:02:23.825Z,88.90
2018-02-20T01:04:50.675Z,87.80
2018-02-20T01:07:17.519Z,87.90
2018-02-20T01:09:44.411Z,88.10
2018-02-20T01:12:11.233Z,87.50
2018-02-20T01:14:38.141Z,88.20
2018-02-20T01:17:04.990Z,88.20
2018-02-20T01:19:31.794Z,88.00
2018-02-20T01:21:58.600Z,88.70
2018-02-20T01:24:26.246Z,88.70
2018-02-20T01:26:53.070Z,88.60
2018-02-20T01:29:20.623Z,88.90
2018-02-20T01:31:47.442Z,88.90
2018-02-20T01:34:14.312Z,89.30
2018-02-20T01:36:41.119Z,89.50
2018-02-20T01:39:08.689Z,89.80
2018-02-20T01:41:35.522Z,89.80
2018-02-20T01:44:02.374Z,90.00
2018-02-20T01:46:29.273Z,90.30
2018-02-20T01:48:56.078Z,90.10
2018-02-20T01:51:22.890Z,90.00
2018-02-20T01:53:49.737Z,89.90
2018-02-20T01:56:16.624Z,90.00
2018-02-20T01:58:43.461Z,90.10
2018-02-20T02:01:10.318Z,90.10
2018-02-20T02:03:37.147Z,90.10
2018-02-20T02:06:04.039Z,90.30
2018-02-20T02:08:31.590Z,90.40
2018-02-20T02:10:59.158Z,90.30
2018-02-20T02:13:26.735Z,90.30
2018-02-20T02:15:53.633Z,90.20
2018-02-20T02:18:20.445Z,90.20
2018-02-20T02:20:47.334Z,90.40
2018-02-20T02:23:14.894Z,90.80
2018-02-20T02:25:41.801Z,90.80
2018-02-20T02:28:09.398Z,90.60
2018-02-20T02:30:36.206Z,90.70
2018-02-20T02:33:03.030Z,90.60
2018-02-20T02:35:29.913Z,90.70
2018-02-20T02:37:56.715Z,90.90
2018-02-20T02:40:23.532Z,90.80
2018-02-20T02:42:50.394Z,90.70
2018-02-20T02:45:17.305Z,91.00
2018-02-20T02:47:44.871Z,90.50
2018-02-20T02:50:11.694Z,90.50
2018-02-20T02:52:39.286Z,90.70
2018-02-20T02:55:06.169Z,90.60
2018-02-20T02:57:32.995Z,90.60
2018-02-20T02:59:59.847Z,91.00
2018-02-20T03:02:26.670Z,91.20
2018-02-20T03:04:53.540Z,91.30
2018-02-20T03:07:20.386Z,91.10
2018-02-20T03:09:47.222Z,91.10
2018-02-20T03:12:14.033Z,90.90
2018-02-20T03:14:40.947Z,90.60
2018-02-20T03:17:08.531Z,90.80
2018-02-20T03:19:36.086Z,90.90
2018-02-20T03:22:03.639Z,90.80
2018-02-20T03:24:30.525Z,90.90
2018-02-20T03:26:57.391Z,91.10
2018-02-20T03:29:31.065Z,91.10
2018-02-20T03:31:57.935Z,90.80
2018-02-20T03:34:24.749Z,90.50
2018-02-20T03:36:51.590Z,90.90
2018-02-20T03:39:18.426Z,91.00
2018-02-20T03:41:45.238Z,91.10
2018-02-20T03:44:12.102Z,91.70
2018-02-20T03:46:38.994Z,91.90
2018-02-20T03:49:05.847Z,92.10
2018-02-20T03:51:32.686Z,92.20
2018-02-20T03:54:00.289Z,92.00
2018-02-20T03:56:27.171Z,92.00
2018-02-20T03:58:54.010Z,92.10
2018-02-20T04:01:20.850Z,92.30
2018-02-20T04:03:47.675Z,92.10
2018-02-20T04:06:14.554Z,92.40
2018-02-20T04:08:41.382Z,92.60
2018-02-20T04:11:08.182Z,92.40
2018-02-20T04:13:35.038Z,92.80
2018-02-20T04:16:01.895Z,92.40
2018-02-20T04:18:28.740Z,92.00
2018-02-20T04:20:55.543Z,92.20
2018-02-20T04:23:22.421Z,92.40
2018-02-20T04:25:49.306Z,92.40
2018-02-20T04:28:16.114Z,92.40
2018-02-20T04:30:42.911Z,92.40
2018-02-20T04:33:10.487Z,91.70
2018-02-20T04:35:37.353Z,91.70
2018-02-20T04:38:04.177Z,91.90
2018-02-20T04:40:31.023Z,92.10
2018-02-20T04:42:57.859Z,92.80
2018-02-20T04:45:24.754Z,92.30
2018-02-20T04:47:51.555Z,92.10
2018-02-20T04:50:18.384Z,92.20
2018-02-20T04:52:45.218Z,92.50
2018-02-20T04:55:12.102Z,93.00
2018-02-20T04:57:38.930Z,92.30
2018-02-20T05:00:05.778Z,92.30
2018-02-20T05:02:32.658Z,92.60
2018-02-20T05:04:59.855Z,92.00
2018-02-20T05:07:27.014Z,92.50
2018-02-20T05:09:53.951Z,92.10
2018-02-20T05:12:20.797Z,92.10
2018-02-20T05:14:47.694Z,92.10
2018-02-20T05:17:14.509Z,92.10
2018-02-20T05:19:41.677Z,92.30
2018-02-20T05:22:09.298Z,92.30
2018-02-20T05:24:36.150Z,92.20
2018-02-20T05:27:03.011Z,92.60
2018-02-20T05:29:29.796Z,92.30
2018-02-20T05:31:56.613Z,92.20
2018-02-20T05:34:23.548Z,92.30
2018-02-20T05:36:50.402Z,92.70
2018-02-20T05:39:17.242Z,92.50
2018-02-20T05:41:44.820Z,92.60
2018-02-20T05:44:11.666Z,92.50
2018-02-20T05:46:38.494Z,92.50
2018-02-20T05:49:05.388Z,92.40
2018-02-20T05:51:32.214Z,92.40
2018-02-20T05:53:59.081Z,92.50
2018-02-20T05:56:25.994Z,92.30
2018-02-20T05:58:52.838Z,92.50
2018-02-20T06:01:19.670Z,92.60
2018-02-20T06:03:47.230Z,92.60
2018-02-20T06:06:14.063Z,92.60
2018-02-20T06:08:40.943Z,92.50
2018-02-20T06:11:07.922Z,92.80
2018-02-20T06:13:34.746Z,92.70
2018-02-20T06:16:01.646Z,92.30
2018-02-20T06:18:28.550Z,91.90
2018-02-20T06:20:55.398Z,92.60
2018-02-20T06:23:22.980Z,93.00
2018-02-20T06:25:50.576Z,92.30
2018-02-20T06:28:17.398Z,92.30
2018-02-20T06:30:44.238Z,92.40
2018-02-20T06:33:12.189Z,92.40
2018-02-20T06:35:39.042Z,92.40
2018-02-20T06:38:05.908Z,92.40
2018-02-20T06:40:32.754Z,91.90
2018-02-20T06:42:59.566Z,91.70
2018-02-20T06:45:27.166Z,92.00
2018-02-20T06:47:53.980Z,92.00
2018-02-20T06:50:20.846Z,92.10
2018-02-20T06:52:47.797Z,92.10
2018-02-20T06:55:15.481Z,91.80
2018-02-20T06:57:43.116Z,92.00
2018-02-20T07:00:09.984Z,91.90
2018-02-20T07:02:37.588Z,91.80
2018-02-20T07:05:04.447Z,91.80
2018-02-20T07:07:31.254Z,91.70
2018-02-20T07:09:58.836Z,91.80
2018-02-20T07:12:25.691Z,91.70
2018-02-20T07:14:52.527Z,91.30
2018-02-20T07:17:19.398Z,91.70
2018-02-20T07:19:46.263Z,91.50
2018-02-20T07:22:13.338Z,91.30
2018-02-20T07:24:41.149Z,91.20
2018-02-20T07:27:08.074Z,91.20
2018-02-20T07:29:34.894Z,91.20
2018-02-20T07:32:03.182Z,91.50
2018-02-20T07:34:30.063Z,91.40
2018-02-20T07:36:57.502Z,91.00
2018-02-20T07:39:25.230Z,91.30
2018-02-20T07:41:52.426Z,91.30
2018-02-20T07:44:20.234Z,91.00
2018-02-20T07:46:47.221Z,90.90
2018-02-20T07:49:14.065Z,91.30
2018-02-20T07:51:42.194Z,91.50
2018-02-20T07:54:09.274Z,91.10
2018-02-20T07:56:36.142Z,91.10
2018-02-20T07:59:04.126Z,91.10
2018-02-20T08:01:31.203Z,91.00
2018-02-20T08:03:58.210Z,90.90
2018-02-20T08:06:26.342Z,90.90
2018-02-20T08:08:54.094Z,90.80
2018-02-20T08:11:21.794Z,90.40
2018-02-20T08:13:48.950Z,90.40
2018-02-20T08:16:16.706Z,91.10
2018-02-20T08:18:47.099Z,91.50
2018-02-20T08:21:14.101Z,90.90
2018-02-20T08:23:41.118Z,90.80
2018-02-20T08:26:08.075Z,90.60
2018-02-20T08:28:35.051Z,90.50
2018-02-20T08:31:02.690Z,90.50
2018-02-20T08:33:29.785Z,90.50
2018-02-20T08:35:56.793Z,90.80
2018-02-20T08:38:24.804Z,90.50
2018-02-20T08:40:51.911Z,90.20
2018-02-20T08:43:18.889Z,90.60
2018-02-20T08:45:46.347Z,90.00
2018-02-20T08:48:13.404Z,90.20
2018-02-20T08:50:40.430Z,90.00
2018-02-20T08:53:07.430Z,90.20
2018-02-20T08:55:34.598Z,90.20
2018-02-20T08:58:01.473Z,89.40
2018-02-20T09:00:29.311Z,89.80
2018-02-20T09:02:56.298Z,89.80
2018-02-20T09:05:23.214Z,90.30
2018-02-20T09:07:50.150Z,90.10
2018-02-20T09:10:17.094Z,90.00
2018-02-20T09:12:43.986Z,90.50
2018-02-20T09:15:11.566Z,89.90
2018-02-20T09:17:39.127Z,89.90
2018-02-20T09:20:06.698Z,89.60
2018-02-20T09:22:33.528Z,89.70
2018-02-20T09:25:00.472Z,90.10
2018-02-20T09:30:24.085Z,90.00
2018-02-20T09:32:50.922Z,88.50
2018-02-20T09:35:17.791Z,88.10
2018-02-20T09:37:44.634Z,87.40
2018-02-20T09:40:11.474Z,88.00
2018-02-20T09:42:38.341Z,88.40
2018-02-20T09:45:05.231Z,87.10
2018-02-20T09:47:32.107Z,87.60
2018-02-20T09:49:59.688Z,87.60
2018-02-20T09:52:26.550Z,88.00
2018-02-20T09:54:54.117Z,87.80
2018-02-20T09:57:21.678Z,86.00
2018-02-20T09:59:48.530Z,86.00
2018-02-20T10:02:15.342Z,86.40
2018-02-20T10:04:42.166Z,86.40
2018-02-20T10:07:09.136Z,85.70
2018-02-20T10:09:36.011Z,86.40
2018-02-20T10:12:02.897Z,85.50
2018-02-20T10:14:30.407Z,84.20
2018-02-20T10:16:58.281Z,85.40
2018-02-20T10:19:25.206Z,85.40
2018-02-20T10:21:51.999Z,85.50
2018-02-20T10:24:18.814Z,84.70
2018-02-20T10:26:46.059Z,85.00
2018-02-20T10:29:12.962Z,84.40
2018-02-20T10:31:39.856Z,83.00
2018-02-20T10:34:06.714Z,84.50
2018-02-20T10:36:34.461Z,85.00
2018-02-20T10:39:02.315Z,84.00
2018-02-20T10:41:30.105Z,83.30
2018-02-20T10:43:57.124Z,83.30
2018-02-20T10:46:25.718Z,83.60
2018-02-20T10:48:52.845Z,83.40
2018-02-20T10:51:19.830Z,84.10
2018-02-20T10:53:46.737Z,83.00
2018-02-20T10:56:13.739Z,83.90
2018-02-20T10:58:40.679Z,84.20
2018-02-20T11:01:07.621Z,84.50
2018-02-20T11:03:34.467Z,83.80
2018-02-20T11:06:01.374Z,84.20
2018-02-20T11:08:28.205Z,85.80
2018-02-20T11:13:29.534Z,83.90
2018-02-20T11:15:56.390Z,83.90
2018-02-20T11:18:23.233Z,84.90
2018-02-20T11:20:50.069Z,82.20
2018-02-20T11:23:16.918Z,82.70
2018-02-20T11:25:43.732Z,82.10
2018-02-20T11:28:10.574Z,82.30
2018-02-20T11:30:37.454Z,81.80
2018-02-20T11:33:05.063Z,83.00
2018-02-20T11:35:31.908Z,83.00
2018-02-20T11:37:58.725Z,82.20
2018-02-20T11:40:25.598Z,81.90
2018-02-20T11:42:52.434Z,83.30
2018-02-20T11:45:19.969Z,84.80
2018-02-20T11:47:47.538Z,83.00
2018-02-20T11:50:14.368Z,83.00
2018-02-20T11:52:41.222Z,82.40
2018-02-20T11:55:08.785Z,84.90
2018-02-20T11:57:36.347Z,83.50
2018-02-20T12:00:03.319Z,83.50
2018-02-20T12:02:30.128Z,85.20
2018-02-20T12:04:56.969Z,84.10
2018-02-20T12:07:23.829Z,84.70
2018-02-20T12:09:50.657Z,85.80
2018-02-20T12:12:17.484Z,86.20
2018-02-20T12:14:44.358Z,85.40
2018-02-20T12:17:11.195Z,85.70
2018-02-20T12:19:38.047Z,86.00
2018-02-20T12:22:04.938Z,85.60
2018-02-20T12:24:32.511Z,86.00
2018-02-20T12:27:00.061Z,86.30
2018-02-20T12:29:26.923Z,86.30
2018-02-20T12:31:53.778Z,84.90
2018-02-20T12:34:20.631Z,86.00
2018-02-20T12:36:47.486Z,86.70
2018-02-20T12:39:14.342Z,85.60
2018-02-20T12:41:41.175Z,87.00
2018-02-20T12:44:08.017Z,86.30
2018-02-20T12:46:34.850Z,85.20
2018-02-20T12:49:01.695Z,85.80
2018-02-20T12:51:28.530Z,84.30
2018-02-20T12:53:55.342Z,84.80
2018-02-20T12:56:22.966Z,86.30
2018-02-20T12:58:49.782Z,86.30
2018-02-20T13:01:16.642Z,86.90
2018-02-20T13:03:43.485Z,86.50
2018-02-20T13:06:10.322Z,86.90
2018-02-20T13:08:37.173Z,86.10
2018-02-20T13:11:04.003Z,87.80
2018-02-20T13:13:31.146Z,86.70
2018-02-20T13:15:58.082Z,88.40
2018-02-20T13:18:24.942Z,87.20
2018-02-20T13:20:51.766Z,86.90
2018-02-20T13:23:18.612Z,87.20
2018-02-20T13:25:45.465Z,87.00
2018-02-20T13:28:12.330Z,85.40
2018-02-20T13:30:39.195Z,85.90
2018-02-20T13:33:06.794Z,88.20
2018-02-20T13:35:33.630Z,88.10
2018-02-20T13:38:00.490Z,87.40
2018-02-20T13:40:27.303Z,88.70
2018-02-20T13:42:54.166Z,89.90
2018-02-20T13:45:22.382Z,89.80
2018-02-20T13:47:49.350Z,88.70
2018-02-20T13:50:16.269Z,90.00
2018-02-20T13:52:43.079Z,89.30
2018-02-20T13:55:18.878Z,89.20
2018-02-20T13:57:46.747Z,88.90
2018-02-20T14:00:14.640Z,89.10
2018-02-20T14:02:42.362Z,89.60
2018-02-20T14:05:10.043Z,88.90
2018-02-20T14:07:38.586Z,88.80
2018-02-20T14:10:06.539Z,90.10
2018-02-20T14:12:33.479Z,89.90
2018-02-20T14:15:07.975Z,89.90
2018-02-20T14:17:34.971Z,89.00
2018-02-20T14:20:03.287Z,90.00
2018-02-20T14:22:31.270Z,90.00
2018-02-20T14:24:58.293Z,89.90
2018-02-20T14:27:25.322Z,91.00
2018-02-20T14:29:53.401Z,90.80
2018-02-20T14:32:20.915Z,90.70
2018-02-20T14:34:47.886Z,90.50
2018-02-20T14:37:14.858Z,90.60
2018-02-20T14:39:42.843Z,90.30
2018-02-20T14:42:10.523Z,91.30
2018-02-20T14:44:38.720Z,91.10
2018-02-20T14:47:07.935Z,91.00
2018-02-20T14:49:36.820Z,91.10
2018-02-20T14:52:05.838Z,91.30
2018-02-20T14:54:32.905Z,91.30
2018-02-20T14:56:59.894Z,91.10
2018-02-20T14:59:27.920Z,91.10
2018-02-20T15:01:57.591Z,91.10
2018-02-20T15:04:26.791Z,91.20
2018-02-20T15:06:55.349Z,91.20
2018-02-20T15:09:22.981Z,90.90
2018-02-20T15:11:49.925Z,90.90
2018-02-20T15:14:17.815Z,90.90
2018-02-20T15:16:45.683Z,91.40
2018-02-20T15:19:12.573Z,91.40
2018-02-20T15:21:40.443Z,91.30
2018-02-20T15:24:08.430Z,91.80
2018-02-20T15:26:36.174Z,91.70
2018-02-20T15:29:03.864Z,91.50
2018-02-20T15:31:33.028Z,91.30
2018-02-20T15:34:00.775Z,91.20
2018-02-20T15:36:43.451Z,91.30
2018-02-20T15:39:10.479Z,91.80
2018-02-20T15:41:41.607Z,91.30
2018-02-20T15:44:10.088Z,92.00
2018-02-20T15:46:38.439Z,92.10
2018-02-20T15:49:06.039Z,92.00
2018-02-20T15:51:34.023Z,91.90
2018-02-20T15:54:01.005Z,92.40
2018-02-20T15:56:28.751Z,93.10
2018-02-20T15:58:55.725Z,92.50
2018-02-20T16:01:22.877Z,92.80
2018-02-20T16:03:50.490Z,92.10
2018-02-20T16:06:18.271Z,92.10
2018-02-20T16:08:45.967Z,92.80
2018-02-20T16:11:13.854Z,92.70
2018-02-20T16:13:42.333Z,92.70
2018-02-20T16:16:10.279Z,92.90
2018-02-20T16:18:38.430Z,92.30
2018-02-20T16:21:05.435Z,93.50
2018-02-20T16:23:32.447Z,93.40
2018-02-20T16:25:59.436Z,93.50
2018-02-20T16:28:26.407Z,93.20
2018-02-20T16:30:54.870Z,92.90
2018-02-20T16:33:23.247Z,93.30
2018-02-20T16:35:50.131Z,93.30
2018-02-20T16:38:16.958Z,93.10
2018-02-20T16:40:43.798Z,93.40
2018-02-20T16:43:10.659Z,93.60
2018-02-20T16:45:37.519Z,93.50
2018-02-20T16:48:04.386Z,93.40
2018-02-20T16:50:31.440Z,92.60
2018-02-20T16:52:58.358Z,93.30
2018-02-20T16:55:25.332Z,92.80
2018-02-20T16:57:52.352Z,93.20
2018-02-20T17:00:19.971Z,93.80
2018-02-20T17:02:47.971Z,93.40
2018-02-20T17:05:15.100Z,93.20
2018-02-20T17:07:42.002Z,93.30
2018-02-20T17:10:09.614Z,93.70
2018-02-20T17:12:36.483Z,93.70
2018-02-20T17:15:03.359Z,93.40
2018-02-20T17:17:30.959Z,93.70
2018-02-20T17:19:58.392Z,93.70
2018-02-20T17:22:26.171Z,93.50
2018-02-20T17:24:54.418Z,93.30
2018-02-20T17:27:21.563Z,93.30
2018-02-20T17:29:48.547Z,93.40
2018-02-20T17:32:15.491Z,93.50
2018-02-20T17:34:50.976Z,93.80
2018-02-20T17:37:17.982Z,93.80
2018-02-20T17:39:45.647Z,93.40
2018-02-20T17:42:12.586Z,93.40
2018-02-20T17:44:39.626Z,93.60
2018-02-20T17:47:06.614Z,93.60
2018-02-20T17:49:33.527Z,94.00
2018-02-20T17:52:00.628Z,93.60
2018-02-20T17:54:27.652Z,92.90
2018-02-20T17:56:55.454Z,93.40
2018-02-20T17:59:23.727Z,93.80
2018-02-20T18:01:50.763Z,93.80
2018-02-20T18:04:18.490Z,93.30
2018-02-20T18:06:46.134Z,93.20
2018-02-20T18:09:12.942Z,93.10
2018-02-20T18:11:40.512Z,93.30
2018-02-20T18:14:07.688Z,93.30
2018-02-20T18:16:34.610Z,93.40
2018-02-20T18:19:02.165Z,93.70
2018-02-20T18:21:28.990Z,93.60
2018-02-20T18:23:55.862Z,93.20
2018-02-20T18:26:22.694Z,93.60
2018-02-20T18:28:49.565Z,93.50
2018-02-20T18:31:16.766Z,93.20
2018-02-20T18:33:43.854Z,93.70
2018-02-20T18:36:11.795Z,93.90
2018-02-20T18:38:40.050Z,93.80
2018-02-20T18:41:06.867Z,94.00
2018-02-20T18:43:33.711Z,93.60
2018-02-20T18:46:00.830Z,93.60
2018-02-20T18:48:29.311Z,93.90
2018-02-20T18:50:57.018Z,93.90
2018-02-20T18:53:29.208Z,93.50
2018-02-20T18:55:56.962Z,94.00
2018-02-20T18:58:25.310Z,94.20
2018-02-20T19:00:52.398Z,94.20
2018-02-20T19:03:19.457Z,94.20
2018-02-20T19:05:46.615Z,94.00
2018-02-20T19:08:13.579Z,93.70
2018-02-20T19:10:40.577Z,93.70
2018-02-20T19:13:09.282Z,93.90
2018-02-20T19:15:37.247Z,93.90
2018-02-20T19:18:04.122Z,94.10
2018-02-20T19:20:30.982Z,94.20
2018-02-20T19:22:57.825Z,94.30
2018-02-20T19:25:24.742Z,93.80
2018-02-20T19:27:51.633Z,93.90
2018-02-20T19:30:18.460Z,93.90
2018-02-20T19:32:45.310Z,94.00
2018-02-20T19:35:12.151Z,94.00
2018-02-20T19:37:38.990Z,94.20
2018-02-20T19:40:05.841Z,94.60
2018-02-20T19:42:32.648Z,94.40
2018-02-20T19:44:59.520Z,94.30
2018-02-20T19:47:26.622Z,94.60
2018-02-20T19:49:54.303Z,94.50
2018-02-20T19:52:21.227Z,94.50
2018-02-20T19:54:48.322Z,94.40
2018-02-20T19:57:16.947Z,94.50
2018-02-20T19:59:43.856Z,94.20
2018-02-20T20:02:11.859Z,94.10
2018-02-20T20:04:38.954Z,93.90
2018-02-20T20:07:05.910Z,93.90
2018-02-20T20:09:33.508Z,94.10
2018-02-20T20:12:01.243Z,93.60
2018-02-20T20:14:28.820Z,93.60
2018-02-20T20:16:55.939Z,93.60
2018-02-20T20:19:23.070Z,93.90
2018-02-20T20:21:50.643Z,93.80
2018-02-20T20:24:17.492Z,93.80
2018-02-20T20:26:44.764Z,94.20
2018-02-20T20:29:12.369Z,93.90
2018-02-20T20:31:40.055Z,94.40
2018-02-20T20:34:07.714Z,94.30
2018-02-20T20:36:34.810Z,94.30
2018-02-20T20:39:01.922Z,94.20
2018-02-20T20:41:28.960Z,93.90
2018-02-20T20:43:55.854Z,94.00
2018-02-20T20:46:22.814Z,94.00
2018-02-20T20:48:50.474Z,93.90
2018-02-20T20:51:17.349Z,93.90
2018-02-20T20:53:44.377Z,94.40
2018-02-20T20:56:11.346Z,93.90
2018-02-20T20:58:38.166Z,93.80
2018-02-20T21:01:04.994Z,93.80
2018-02-20T21:03:32.615Z,94.00
2018-02-20T21:05:59.482Z,94.10
2018-02-20T21:08:26.342Z,94.50
2018-02-20T21:10:53.163Z,94.50
2018-02-20T21:13:20.848Z,94.40
2018-02-20T21:15:47.781Z,94.10
2018-02-20T21:18:14.778Z,94.40
2018-02-20T21:20:43.478Z,94.50
2018-02-20T21:23:11.356Z,94.40
2018-02-20T21:25:38.372Z,94.40
2018-02-20T21:28:05.246Z,94.10
2018-02-20T21:30:32.329Z,94.40
2018-02-20T21:32:59.463Z,94.10
2018-02-20T21:35:26.352Z,94.50
2018-02-20T21:37:53.929Z,94.30
2018-02-20T21:40:20.762Z,94.70
2018-02-20T21:42:48.395Z,94.00
2018-02-20T21:45:15.294Z,94.00
2018-02-20T21:47:42.115Z,94.10
2018-02-20T21:50:08.934Z,94.20
2018-02-20T21:52:35.832Z,94.10
2018-02-20T21:55:03.699Z,94.30
2018-02-20T21:57:30.674Z,94.30
2018-02-20T21:59:57.559Z,94.60
2018-02-20T22:02:24.394Z,94.70
2018-02-20T22:04:51.238Z,94.40
2018-02-20T22:07:18.831Z,94.40
2018-02-20T22:09:46.638Z,94.20
2018-02-20T22:12:14.218Z,94.10
2018-02-20T22:14:41.364Z,94.10
2018-02-20T22:17:08.190Z,94.30
2018-02-20T22:19:35.763Z,94.00
2018-02-20T22:22:03.350Z,94.00
2018-02-20T22:24:30.170Z,94.00
2018-02-20T22:26:57.030Z,93.90
2018-02-20T22:29:23.955Z,94.00
2018-02-20T22:31:50.870Z,94.50
2018-02-20T22:34:18.443Z,94.30
2018-02-20T22:36:46.139Z,94.00
2018-02-20T22:39:13.769Z,94.20
2018-02-20T22:41:41.759Z,94.20
2018-02-20T22:44:08.598Z,94.30
2018-02-20T22:46:35.443Z,94.50
2018-02-20T22:49:03.018Z,94.20
2018-02-20T22:51:29.851Z,94.20
2018-02-20T22:53:56.725Z,94.20
2018-02-20T22:56:23.570Z,94.30
2018-02-20T22:58:50.383Z,94.50
2018-02-20T23:01:17.219Z,94.00
2018-02-20T23:03:44.074Z,94.00
2018-02-20T23:06:10.971Z,93.70
2018-02-20T23:08:38.538Z,94.40
2018-02-20T23:11:06.122Z,94.40
2018-02-20T23:13:32.946Z,94.40
2018-02-20T23:16:00.533Z,95.20
2018-02-20T23:18:27.387Z,95.20
2018-02-20T23:20:54.203Z,95.20
2018-02-20T23:23:21.033Z,95.50
2018-02-20T23:25:48.648Z,95.10
2018-02-20T23:28:15.491Z,95.10
2018-02-20T23:30:43.051Z,95.00
2018-02-20T23:33:09.919Z,95.00
2018-02-20T23:35:36.788Z,95.20
2018-02-20T23:38:04.356Z,94.50
2018-02-20T23:40:31.922Z,94.40
2018-02-20T23:42:58.781Z,94.40
2018-02-20T23:45:25.582Z,94.50
2018-02-20T23:47:53.202Z,94.50
2018-02-20T23:50:20.089Z,94.50
2018-02-20T23:52:47.657Z,94.10
2018-02-20T23:55:15.234Z,93.80
2018-02-20T23:57:42.071Z,93.80
